createdAt,value
2017-03-12T00:00:05.752Z,1.68
2017-03-12T00:01:05.365Z,1.7
2017-03-12T00:02:05.342Z,1.59
2017-03-12T00:03:05.715Z,1.62
2017-03-12T00:04:05.701Z,1.63
2017-03-12T00:05:05.315Z,1.55
2017-03-12T00:06:05.291Z,1.6
2017-03-12T00:07:05.659Z,1.63
2017-03-12T00:08:05.650Z,1.59
2017-03-12T00:09:05.628Z,1.6
2017-03-12T00:10:05.624Z,1.52
2017-03-12T00:11:05.216Z,1.48
2017-03-12T00:12:05.610Z,1.51
2017-03-12T00:13:05.599Z,1.47
2017-03-12T00:14:05.560Z,1.47
2017-03-12T00:15:05.553Z,1.5
2017-03-12T00:16:05.551Z,1.47
2017-03-12T00:17:05.522Z,1.45
2017-03-12T00:18:05.502Z,1.47
2017-03-12T00:19:05.499Z,1.48
2017-03-12T00:20:05.088Z,1.5
2017-03-12T00:21:05.458Z,1.44
2017-03-12T00:22:05.455Z,1.47
2017-03-12T00:23:05.441Z,1.42
2017-03-12T00:24:05.427Z,1.41
2017-03-12T00:25:05.402Z,1.4
2017-03-12T00:26:05.388Z,1.44
2017-03-12T00:27:05.387Z,1.47
2017-03-12T00:28:05.353Z,1.42
2017-03-12T00:29:05.345Z,1.44
2017-03-12T00:30:05.325Z,1.34
2017-03-12T00:31:05.327Z,1.41
2017-03-12T00:32:05.292Z,1.41
2017-03-12T00:33:05.285Z,1.32
2017-03-12T00:34:05.276Z,1.32
2017-03-12T00:35:05.258Z,1.34
2017-03-12T00:36:05.245Z,1.32
2017-03-12T00:37:05.220Z,1.3
2017-03-12T00:38:05.212Z,1.26
2017-03-12T00:39:05.210Z,1.29
2017-03-12T00:40:05.203Z,1.27
2017-03-12T00:41:05.183Z,1.3
2017-03-12T00:42:05.149Z,1.23
2017-03-12T00:43:05.135Z,1.3
2017-03-12T00:44:05.125Z,1.26
2017-03-12T00:45:05.107Z,1.32
2017-03-12T00:46:05.091Z,1.22
2017-03-12T00:47:05.077Z,1.22
2017-03-12T00:48:05.087Z,1.24
2017-03-12T00:49:05.066Z,1.24
2017-03-12T00:50:05.056Z,1.16
2017-03-12T00:51:04.647Z,1.24
2017-03-12T00:52:05.016Z,1.22
2017-03-12T00:53:05.017Z,1.08
2017-03-12T00:54:04.587Z,1.12
2017-03-12T00:55:04.573Z,1.12
2017-03-12T00:56:04.601Z,1.16
2017-03-12T00:57:04.567Z,1.14
2017-03-12T00:58:04.529Z,1.15
2017-03-12T00:59:04.902Z,1.16
2017-03-12T01:00:04.500Z,1.14
2017-03-12T01:01:04.493Z,1.16
2017-03-12T01:02:04.880Z,1.2
2017-03-12T01:03:04.460Z,1.08
2017-03-12T01:04:04.825Z,1.15
2017-03-12T01:05:04.820Z,1.15
2017-03-12T01:06:04.820Z,1.15
2017-03-12T01:07:04.797Z,1.18
2017-03-12T01:08:04.796Z,1.11
2017-03-12T01:09:04.751Z,1.12
2017-03-12T01:10:04.736Z,1.18
2017-03-12T01:11:04.723Z,1.16
2017-03-12T01:12:04.729Z,1.18
2017-03-12T01:13:04.695Z,1.11
2017-03-12T01:14:04.682Z,1.06
2017-03-12T01:15:04.666Z,1.15
2017-03-12T01:16:04.671Z,1.23
2017-03-12T01:17:04.651Z,1.15
2017-03-12T01:18:04.619Z,1.15
2017-03-12T01:19:04.618Z,1.18
2017-03-12T01:20:04.604Z,1.11
2017-03-12T01:21:04.594Z,1.09
2017-03-12T01:22:04.576Z,1.16
2017-03-12T01:23:04.606Z,1.16
2017-03-12T01:24:04.530Z,1.11
2017-03-12T01:25:04.557Z,1.12
2017-03-12T01:26:04.511Z,1.14
2017-03-12T01:27:04.489Z,1.14
2017-03-12T01:28:04.480Z,1.15
2017-03-12T01:29:04.461Z,1.12
2017-03-12T01:30:04.456Z,1.15
2017-03-12T01:31:04.427Z,1.16
2017-03-12T01:32:04.412Z,1.11
2017-03-12T01:33:04.397Z,1.11
2017-03-12T01:34:04.005Z,1.11
2017-03-12T01:35:04.366Z,1.05
2017-03-12T01:36:04.369Z,1.06
2017-03-12T01:37:04.340Z,1.02
2017-03-12T01:38:04.331Z,1.05
2017-03-12T01:39:04.307Z,1.14
2017-03-12T01:40:04.302Z,1.02
2017-03-12T01:41:04.294Z,1.05
2017-03-12T01:42:04.265Z,1.06
2017-03-12T01:43:04.254Z,1.04
2017-03-12T01:44:04.238Z,1.02
2017-03-12T01:45:04.219Z,0.98
2017-03-12T01:46:04.206Z,1
2017-03-12T01:47:04.194Z,0.97
2017-03-12T01:48:04.188Z,0.97
2017-03-12T01:49:04.163Z,0.97
2017-03-12T01:50:04.162Z,0.98
2017-03-12T01:51:03.757Z,0.93
2017-03-12T01:52:04.121Z,0.93
2017-03-12T01:53:04.121Z,0.91
2017-03-12T01:54:04.093Z,0.87
2017-03-12T01:55:04.105Z,0.93
2017-03-12T01:56:04.064Z,0.9
2017-03-12T01:57:04.047Z,0.93
2017-03-12T01:58:04.039Z,0.83
2017-03-12T01:59:04.021Z,0.87
2017-03-12T02:00:04.001Z,0.88
2017-03-12T02:01:03.981Z,0.8
2017-03-12T02:02:03.965Z,0.79
2017-03-12T02:03:03.955Z,0.79
2017-03-12T02:04:03.941Z,0.91
2017-03-12T02:05:03.939Z,0.83
2017-03-12T02:06:03.909Z,0.9
2017-03-12T02:07:03.892Z,0.9
2017-03-12T02:08:03.888Z,0.88
2017-03-12T02:09:03.869Z,0.93
2017-03-12T02:10:03.848Z,0.86
2017-03-12T02:11:03.835Z,0.83
2017-03-12T02:12:03.813Z,0.78
2017-03-12T02:13:03.804Z,0.87
2017-03-12T02:14:03.816Z,0.75
2017-03-12T02:15:03.776Z,0.76
2017-03-12T02:16:03.764Z,0.72
2017-03-12T02:17:03.745Z,0.83
2017-03-12T02:18:03.738Z,0.78
2017-03-12T02:19:03.711Z,0.72
2017-03-12T02:20:03.704Z,0.8
2017-03-12T02:21:03.682Z,0.75
2017-03-12T02:22:03.282Z,0.72
2017-03-12T02:23:03.674Z,0.75
2017-03-12T02:24:03.646Z,0.7
2017-03-12T02:25:03.620Z,0.68
2017-03-12T02:26:03.617Z,0.68
2017-03-12T02:27:03.600Z,0.61
2017-03-12T02:28:03.578Z,0.65
2017-03-12T02:29:03.583Z,0.73
2017-03-12T02:30:03.545Z,0.73
2017-03-12T02:31:03.528Z,0.78
2017-03-12T02:32:03.529Z,0.68
2017-03-12T02:33:03.510Z,0.69
2017-03-12T02:34:03.520Z,0.7
2017-03-12T02:35:03.469Z,0.68
2017-03-12T02:36:03.077Z,0.65
2017-03-12T02:37:03.055Z,0.62
2017-03-12T02:38:03.429Z,0.68
2017-03-12T02:39:03.412Z,0.61
2017-03-12T02:40:03.396Z,0.61
2017-03-12T02:41:03.383Z,0.6
2017-03-12T02:42:03.364Z,0.68
2017-03-12T02:43:03.348Z,0.5
2017-03-12T02:44:03.351Z,0.5
2017-03-12T02:45:03.330Z,0.46
2017-03-12T02:46:03.311Z,0.51
2017-03-12T02:47:03.290Z,0.42
2017-03-12T02:48:03.293Z,0.5
2017-03-12T02:49:03.266Z,0.49
2017-03-12T02:50:03.244Z,0.47
2017-03-12T02:51:03.235Z,0.39
2017-03-12T02:52:03.216Z,0.38
2017-03-12T02:53:03.200Z,0.39
2017-03-12T02:54:03.431Z,0.36
2017-03-12T02:55:03.170Z,0.35
2017-03-12T02:56:02.803Z,0.33
2017-03-12T02:57:03.147Z,0.24
2017-03-12T02:58:03.138Z,0.28
2017-03-12T02:59:03.105Z,0.28
2017-03-12T03:00:03.086Z,0.18
2017-03-12T03:01:02.719Z,0.18
2017-03-12T03:02:03.068Z,0.2
2017-03-12T03:03:03.058Z,0.17
2017-03-12T03:04:03.040Z,0.13
2017-03-12T03:05:03.016Z,0.21
2017-03-12T03:06:02.998Z,0.13
2017-03-12T03:07:02.987Z,0.15
2017-03-12T03:08:02.993Z,0.18
2017-03-12T03:09:02.952Z,0.11
2017-03-12T03:10:02.940Z,0.17
2017-03-12T03:11:02.946Z,0.15
2017-03-12T03:12:02.924Z,0.14
2017-03-12T03:13:02.913Z,0.2
2017-03-12T03:14:02.871Z,0.11
2017-03-12T03:15:02.857Z,0.04
2017-03-12T03:16:02.839Z,0.07
2017-03-12T03:17:02.826Z,0.1
2017-03-12T03:18:02.836Z,0.1
2017-03-12T03:19:02.807Z,0.1
2017-03-12T03:20:02.798Z,0.14
2017-03-12T03:21:02.780Z,0.1
2017-03-12T03:22:02.773Z,0.15
2017-03-12T03:23:02.741Z,0.08
2017-03-12T03:24:02.725Z,0.17
2017-03-12T03:25:02.700Z,0.13
2017-03-12T03:26:02.692Z,0.1
2017-03-12T03:27:02.672Z,0.2
2017-03-12T03:28:02.666Z,0.2
2017-03-12T03:29:02.680Z,0.18
2017-03-12T03:30:02.625Z,0.26
2017-03-12T03:31:02.642Z,0.18
2017-03-12T03:32:02.597Z,0.2
2017-03-12T03:33:02.612Z,0.26
2017-03-12T03:34:02.566Z,0.21
2017-03-12T03:35:02.560Z,0.21
2017-03-12T03:36:02.535Z,0.26
2017-03-12T03:37:02.529Z,0.21
2017-03-12T03:38:02.506Z,0.17
2017-03-12T03:39:02.491Z,0.15
2017-03-12T03:40:02.471Z,0.32
2017-03-12T03:41:02.459Z,0.28
2017-03-12T03:42:02.445Z,0.24
2017-03-12T03:43:02.427Z,0.24
2017-03-12T03:44:02.048Z,0.31
2017-03-12T03:45:02.409Z,0.24
2017-03-12T03:46:02.383Z,0.26
2017-03-12T03:47:02.366Z,0.31
2017-03-12T03:48:02.354Z,0.28
2017-03-12T03:49:02.338Z,0.31
2017-03-12T03:50:02.338Z,0.35
2017-03-12T03:51:02.322Z,0.26
2017-03-12T03:52:02.292Z,0.24
2017-03-12T03:53:02.285Z,0.29
2017-03-12T03:54:02.264Z,0.33
2017-03-12T03:55:02.240Z,0.35
2017-03-12T03:56:02.225Z,0.29
2017-03-12T03:57:02.233Z,0.33
2017-03-12T03:58:02.192Z,0.35
2017-03-12T03:59:02.198Z,0.29
2017-03-12T04:00:02.161Z,0.28
2017-03-12T04:01:02.170Z,0.31
2017-03-12T04:02:02.135Z,0.32
2017-03-12T04:03:02.136Z,0.33
2017-03-12T04:04:02.117Z,0.32
2017-03-12T04:05:02.090Z,0.31
2017-03-12T04:06:02.098Z,0.32
2017-03-12T04:07:02.077Z,0.38
2017-03-12T04:08:02.058Z,0.31
2017-03-12T04:09:02.064Z,0.33
2017-03-12T04:10:02.008Z,0.38
2017-03-12T04:11:01.998Z,0.39
2017-03-12T04:12:01.976Z,0.41
2017-03-12T04:13:01.979Z,0.41
2017-03-12T04:14:01.946Z,0.38
2017-03-12T04:15:01.929Z,0.36
2017-03-12T04:16:01.919Z,0.41
2017-03-12T04:17:01.898Z,0.32
2017-03-12T04:18:01.885Z,0.32
2017-03-12T04:19:01.874Z,0.41
2017-03-12T04:20:01.878Z,0.35
2017-03-12T04:21:01.839Z,0.39
2017-03-12T04:22:01.821Z,0.35
2017-03-12T04:23:01.840Z,0.35
2017-03-12T04:24:01.792Z,0.33
2017-03-12T04:25:01.787Z,0.32
2017-03-12T04:26:01.761Z,0.33
2017-03-12T04:27:01.747Z,0.33
2017-03-12T04:28:01.755Z,0.26
2017-03-12T04:29:01.715Z,0.28
2017-03-12T04:30:01.955Z,0.26
2017-03-12T04:31:01.693Z,0.24
2017-03-12T04:32:01.696Z,0.29
2017-03-12T04:33:01.655Z,0.26
2017-03-12T04:34:01.639Z,0.23
2017-03-12T04:35:01.636Z,0.31
2017-03-12T04:36:01.607Z,0.26
2017-03-12T04:37:01.606Z,0.2
2017-03-12T04:38:01.583Z,0.28
2017-03-12T04:39:01.568Z,0.24
2017-03-12T04:40:01.569Z,0.32
2017-03-12T04:41:01.532Z,0.18
2017-03-12T04:42:01.547Z,0.2
2017-03-12T04:43:01.517Z,0.26
2017-03-12T04:44:01.483Z,0.24
2017-03-12T04:45:01.468Z,0.24
2017-03-12T04:46:01.480Z,0.2
2017-03-12T04:47:01.443Z,0.2
2017-03-12T04:48:01.424Z,0.15
2017-03-12T04:49:01.403Z,0.15
2017-03-12T04:50:01.387Z,0.13
2017-03-12T04:51:01.387Z,0.17
2017-03-12T04:52:01.372Z,0.14
2017-03-12T04:53:01.341Z,0.07
2017-03-12T04:54:01.332Z,0.03
2017-03-12T04:55:01.314Z,0.08
2017-03-12T04:56:01.299Z,0.08
2017-03-12T04:57:01.286Z,0.1
2017-03-12T04:58:01.274Z,0.04
2017-03-12T04:59:01.274Z,0.1
2017-03-12T05:00:00.847Z,0.04
2017-03-12T05:01:01.219Z,0.1
2017-03-12T05:02:01.201Z,0.11
2017-03-12T05:03:01.203Z,0.14
2017-03-12T05:04:01.174Z,0.1
2017-03-12T05:05:01.156Z,0.07
2017-03-12T05:06:01.142Z,0.1
2017-03-12T05:07:01.134Z,0.08
2017-03-12T05:08:01.110Z,0.07
2017-03-12T05:09:01.094Z,0.08
2017-03-12T05:10:01.079Z,0.02
2017-03-12T05:11:01.059Z,0.14
2017-03-12T05:12:01.058Z,0.11
2017-03-12T05:13:01.032Z,0.11
2017-03-12T05:14:01.015Z,0.1
2017-03-12T05:15:01.014Z,-0.03
2017-03-12T05:16:00.989Z,0.08
2017-03-12T05:17:00.983Z,0.02
2017-03-12T05:18:00.960Z,0.04
2017-03-12T05:19:00.943Z,0.08
2017-03-12T05:20:00.552Z,-0.01
2017-03-12T05:21:00.903Z,-0.11
2017-03-12T05:22:00.887Z,0.02
2017-03-12T05:23:00.872Z,-0.11
2017-03-12T05:24:00.858Z,-0.01
2017-03-12T05:25:00.858Z,0
2017-03-12T05:26:00.827Z,-0.07
2017-03-12T05:27:00.810Z,-0.04
2017-03-12T05:28:00.801Z,0.04
2017-03-12T05:29:00.781Z,0.1
2017-03-12T05:30:00.769Z,0.08
2017-03-12T05:31:00.745Z,0.03
2017-03-12T05:32:00.737Z,0.04
2017-03-12T05:33:00.717Z,0.03
2017-03-12T05:34:00.705Z,0.1
2017-03-12T05:35:00.704Z,-0.04
2017-03-12T05:36:00.682Z,0.08
2017-03-12T05:37:00.669Z,0
2017-03-12T05:38:00.637Z,0.11
2017-03-12T05:39:00.634Z,0.1
2017-03-12T05:40:00.609Z,0.04
2017-03-12T05:41:00.591Z,0.13
2017-03-12T05:42:00.583Z,0.1
2017-03-12T05:43:00.573Z,-0.01
2017-03-12T05:44:00.551Z,0.1
2017-03-12T05:45:00.530Z,0.04
2017-03-12T05:46:00.522Z,0.11
2017-03-12T05:47:00.497Z,0.07
2017-03-12T05:48:00.476Z,0.11
2017-03-12T05:49:00.466Z,0.15
2017-03-12T05:50:00.462Z,0.13
2017-03-12T05:51:00.440Z,0.14
2017-03-12T05:52:00.417Z,0.17
2017-03-12T05:53:00.431Z,0.28
2017-03-12T05:54:00.393Z,0.29
2017-03-12T05:55:00.374Z,0.49
2017-03-12T05:56:00.367Z,0.57
2017-03-12T05:57:00.344Z,0.73
2017-03-12T05:58:00.329Z,0.78
2017-03-12T05:59:00.331Z,0.75
2017-03-12T06:00:00.326Z,0.84
2017-03-12T06:01:00.318Z,0.97
2017-03-12T06:02:00.269Z,1.14
2017-03-12T06:03:00.256Z,1.27
2017-03-12T06:04:00.244Z,1.32
2017-03-12T06:05:00.250Z,1.5
2017-03-12T06:06:00.209Z,1.58
2017-03-12T06:07:00.208Z,1.58
2017-03-12T06:08:00.201Z,1.72
2017-03-12T06:09:00.179Z,1.8
2017-03-12T06:10:00.154Z,1.86
2017-03-12T06:11:00.139Z,2.05
2017-03-12T06:12:00.129Z,2.21
2017-03-12T06:13:00.124Z,2.31
2017-03-12T06:14:00.108Z,2.56
2017-03-12T06:15:00.092Z,2.59
2017-03-12T06:15:59.691Z,2.69
2017-03-12T06:17:00.062Z,2.82
2017-03-12T06:18:00.077Z,3
2017-03-12T06:19:00.065Z,3.13
2017-03-12T06:20:00.022Z,3.11
2017-03-12T06:21:00.014Z,3.23
2017-03-12T06:22:00.001Z,3.21
2017-03-12T06:23:00.002Z,3.4
2017-03-12T06:23:59.979Z,3.6
2017-03-12T06:24:59.966Z,3.68
2017-03-12T06:25:59.958Z,3.83
2017-03-12T06:26:59.963Z,4.08
2017-03-12T06:27:59.943Z,4.15
2017-03-12T06:28:59.948Z,4.27
2017-03-12T06:29:59.909Z,4.51
2017-03-12T06:30:59.898Z,4.63
2017-03-12T06:31:59.885Z,4.91
2017-03-12T06:32:59.878Z,5.03
2017-03-12T06:33:59.862Z,5.17
2017-03-12T06:34:59.864Z,5.42
2017-03-12T06:35:59.864Z,5.54
2017-03-12T06:36:59.832Z,5.75
2017-03-12T06:37:59.829Z,5.89
2017-03-12T06:38:59.844Z,6
2017-03-12T06:39:59.801Z,6.09
2017-03-12T06:40:59.794Z,6.25
2017-03-12T06:41:59.784Z,6.37
2017-03-12T06:42:59.402Z,6.49
2017-03-12T06:43:59.761Z,6.69
2017-03-12T06:44:59.757Z,6.74
2017-03-12T06:45:59.749Z,6.81
2017-03-12T06:46:59.740Z,6.98
2017-03-12T06:47:59.736Z,6.97
2017-03-12T06:48:59.342Z,7.12
2017-03-12T06:49:59.718Z,7.05
2017-03-12T06:50:59.721Z,7.15
2017-03-12T06:51:59.699Z,7.24
2017-03-12T06:52:59.702Z,7.23
2017-03-12T06:53:59.685Z,7.16
2017-03-12T06:54:59.282Z,7.13
2017-03-12T06:55:59.671Z,7.15
2017-03-12T06:56:59.657Z,7.16
2017-03-12T06:57:59.673Z,7.2
2017-03-12T06:58:59.656Z,7.13
2017-03-12T06:59:59.630Z,7.09
2017-03-12T07:00:59.622Z,7.15
2017-03-12T07:01:59.633Z,7.27
2017-03-12T07:02:59.613Z,7.32
2017-03-12T07:03:59.603Z,7.4
2017-03-12T07:04:59.592Z,7.42
2017-03-12T07:05:59.608Z,7.55
2017-03-12T07:06:59.594Z,7.55
2017-03-12T07:07:59.572Z,7.6
2017-03-12T07:08:59.564Z,7.64
2017-03-12T07:09:59.554Z,7.74
2017-03-12T07:10:59.545Z,7.79
2017-03-12T07:11:59.542Z,7.85
2017-03-12T07:12:59.539Z,7.85
2017-03-12T07:13:59.535Z,7.82
2017-03-12T07:14:59.534Z,7.79
2017-03-12T07:15:59.511Z,7.63
2017-03-12T07:16:59.519Z,7.39
2017-03-12T07:17:59.517Z,7.28
2017-03-12T07:18:59.493Z,7.15
2017-03-12T07:19:59.526Z,7.09
2017-03-12T07:20:59.476Z,7.03
2017-03-12T07:21:59.469Z,6.85
2017-03-12T07:22:59.489Z,6.88
2017-03-12T07:23:59.453Z,6.81
2017-03-12T07:24:59.451Z,6.73
2017-03-12T07:25:59.440Z,6.66
2017-03-12T07:26:59.427Z,6.71
2017-03-12T07:27:59.422Z,6.71
2017-03-12T07:28:59.411Z,6.49
2017-03-12T07:29:59.405Z,6.54
2017-03-12T07:30:59.388Z,6.34
2017-03-12T07:31:59.378Z,6.21
2017-03-12T07:32:59.371Z,6.3
2017-03-12T07:33:59.377Z,6.15
2017-03-12T07:34:59.366Z,6.28
2017-03-12T07:35:59.353Z,6.28
2017-03-12T07:36:59.339Z,6.22
2017-03-12T07:37:59.326Z,6.15
2017-03-12T07:38:59.320Z,6.09
2017-03-12T07:39:59.331Z,6.03
2017-03-12T07:40:59.296Z,5.99
2017-03-12T07:41:59.287Z,6.03
2017-03-12T07:42:59.293Z,5.99
2017-03-12T07:43:59.291Z,5.97
2017-03-12T07:44:59.253Z,6.06
2017-03-12T07:45:59.243Z,6.03
2017-03-12T07:46:59.244Z,6.12
2017-03-12T07:47:59.233Z,6.12
2017-03-12T07:48:59.227Z,6.06
2017-03-12T07:49:59.206Z,6.03
2017-03-12T07:50:59.194Z,5.93
2017-03-12T07:51:59.185Z,5.9
2017-03-12T07:52:59.180Z,5.89
2017-03-12T07:53:59.166Z,5.86
2017-03-12T07:54:59.163Z,5.74
2017-03-12T07:55:59.161Z,5.72
2017-03-12T07:56:58.762Z,5.54
2017-03-12T07:57:59.118Z,5.54
2017-03-12T07:58:59.123Z,5.58
2017-03-12T07:59:59.102Z,5.45
2017-03-12T08:00:59.086Z,5.53
2017-03-12T08:01:59.074Z,5.53
2017-03-12T08:02:59.064Z,5.49
2017-03-12T08:03:59.052Z,5.48
2017-03-12T08:04:59.040Z,5.45
2017-03-12T08:05:59.043Z,5.43
2017-03-12T08:06:58.656Z,5.46
2017-03-12T08:07:58.619Z,5.38
2017-03-12T08:08:58.996Z,5.42
2017-03-12T08:09:58.988Z,5.31
2017-03-12T08:10:58.974Z,5.2
2017-03-12T08:11:59.015Z,5.17
2017-03-12T08:12:58.954Z,5.25
2017-03-12T08:13:58.941Z,5.25
2017-03-12T08:14:58.930Z,5.25
2017-03-12T08:15:58.920Z,5.38
2017-03-12T08:16:58.910Z,5.33
2017-03-12T08:17:58.904Z,5.53
2017-03-12T08:18:58.913Z,5.48
2017-03-12T08:19:58.878Z,5.35
2017-03-12T08:20:58.864Z,5.35
2017-03-12T08:21:58.850Z,5.35
2017-03-12T08:22:58.865Z,5.45
2017-03-12T08:23:58.839Z,5.53
2017-03-12T08:24:58.819Z,5.58
2017-03-12T08:25:58.812Z,5.57
2017-03-12T08:26:58.809Z,5.57
2017-03-12T08:27:58.796Z,5.64
2017-03-12T08:28:58.776Z,5.53
2017-03-12T08:29:58.763Z,5.61
2017-03-12T08:30:58.754Z,5.65
2017-03-12T08:31:58.761Z,5.61
2017-03-12T08:32:58.734Z,5.64
2017-03-12T08:33:58.725Z,5.64
2017-03-12T08:34:58.721Z,5.65
2017-03-12T08:35:58.727Z,5.53
2017-03-12T08:36:58.691Z,5.49
2017-03-12T08:37:58.681Z,5.49
2017-03-12T08:38:58.674Z,5.46
2017-03-12T08:39:58.661Z,5.36
2017-03-12T08:40:58.650Z,5.27
2017-03-12T08:41:58.635Z,5.28
2017-03-12T08:42:58.638Z,5.27
2017-03-12T08:43:58.628Z,5.25
2017-03-12T08:44:58.621Z,5.3
2017-03-12T08:45:58.599Z,5.36
2017-03-12T08:46:58.575Z,5.38
2017-03-12T08:47:58.565Z,5.45
2017-03-12T08:48:58.559Z,5.43
2017-03-12T08:49:58.545Z,5.49
2017-03-12T08:50:58.532Z,5.48
2017-03-12T08:51:58.529Z,5.63
2017-03-12T08:52:58.515Z,5.68
2017-03-12T08:53:58.504Z,5.76
2017-03-12T08:54:58.487Z,5.81
2017-03-12T08:55:58.500Z,5.9
2017-03-12T08:56:58.468Z,5.82
2017-03-12T08:57:58.455Z,5.86
2017-03-12T08:58:58.459Z,5.85
2017-03-12T08:59:58.435Z,5.82
2017-03-12T09:00:58.423Z,5.79
2017-03-12T09:01:58.416Z,5.76
2017-03-12T09:02:58.430Z,5.71
2017-03-12T09:03:58.413Z,5.76
2017-03-12T09:04:58.019Z,5.76
2017-03-12T09:05:58.369Z,5.79
2017-03-12T09:06:58.358Z,5.74
2017-03-12T09:07:58.359Z,5.79
2017-03-12T09:08:58.341Z,5.79
2017-03-12T09:09:58.328Z,5.85
2017-03-12T09:10:58.337Z,5.9
2017-03-12T09:11:58.318Z,5.89
2017-03-12T09:12:58.319Z,5.78
2017-03-12T09:13:58.283Z,5.86
2017-03-12T09:14:58.273Z,5.91
2017-03-12T09:15:58.256Z,5.93
2017-03-12T09:16:58.251Z,5.99
2017-03-12T09:17:58.241Z,5.97
2017-03-12T09:18:58.236Z,5.97
2017-03-12T09:19:57.842Z,6.03
2017-03-12T09:20:58.208Z,6.04
2017-03-12T09:21:58.197Z,6.19
2017-03-12T09:22:58.213Z,6.22
2017-03-12T09:23:58.180Z,6.15
2017-03-12T09:24:58.167Z,6.15
2017-03-12T09:25:58.156Z,6.17
2017-03-12T09:26:58.161Z,6.17
2017-03-12T09:27:58.136Z,6.15
2017-03-12T09:28:58.126Z,6.15
2017-03-12T09:29:58.114Z,6.11
2017-03-12T09:30:58.107Z,6.17
2017-03-12T09:31:58.097Z,6.19
2017-03-12T09:32:58.088Z,6.19
2017-03-12T09:33:58.092Z,6.3
2017-03-12T09:34:58.058Z,6.3
2017-03-12T09:35:58.059Z,6.38
2017-03-12T09:36:58.064Z,6.38
2017-03-12T09:37:58.042Z,6.36
2017-03-12T09:38:58.036Z,6.33
2017-03-12T09:39:58.001Z,6.36
2017-03-12T09:40:58.018Z,6.37
2017-03-12T09:41:57.984Z,6.37
2017-03-12T09:42:57.990Z,6.27
2017-03-12T09:43:57.966Z,6.34
2017-03-12T09:44:57.971Z,6.34
2017-03-12T09:45:57.940Z,6.36
2017-03-12T09:46:57.939Z,6.44
2017-03-12T09:47:57.926Z,6.59
2017-03-12T09:48:57.923Z,6.71
2017-03-12T09:49:57.897Z,6.84
2017-03-12T09:50:57.895Z,6.91
2017-03-12T09:51:57.884Z,6.95
2017-03-12T09:52:57.865Z,7.05
2017-03-12T09:53:57.858Z,7.1
2017-03-12T09:54:57.878Z,7.1
2017-03-12T09:55:57.835Z,7.12
2017-03-12T09:56:57.828Z,7.2
2017-03-12T09:57:57.818Z,7.09
2017-03-12T09:58:57.807Z,7.07
2017-03-12T09:59:57.796Z,7.05
2017-03-12T10:00:57.806Z,7.16
2017-03-12T10:01:57.775Z,7.17
2017-03-12T10:02:57.781Z,7.28
2017-03-12T10:03:57.781Z,7.31
2017-03-12T10:04:57.375Z,7.39
2017-03-12T10:05:57.736Z,7.37
2017-03-12T10:06:57.723Z,7.53
2017-03-12T10:07:57.731Z,7.48
2017-03-12T10:08:57.701Z,7.55
2017-03-12T10:09:57.699Z,7.69
2017-03-12T10:10:57.705Z,7.79
2017-03-12T10:11:57.698Z,7.85
2017-03-12T10:12:57.663Z,7.82
2017-03-12T10:13:57.678Z,7.8
2017-03-12T10:14:57.673Z,7.82
2017-03-12T10:15:57.640Z,7.75
2017-03-12T10:16:57.629Z,7.82
2017-03-12T10:17:57.616Z,7.69
2017-03-12T10:18:57.609Z,7.74
2017-03-12T10:19:57.214Z,7.8
2017-03-12T10:20:57.595Z,7.86
2017-03-12T10:21:57.581Z,7.9
2017-03-12T10:22:57.587Z,7.86
2017-03-12T10:23:57.177Z,7.82
2017-03-12T10:24:57.574Z,7.79
2017-03-12T10:25:57.544Z,7.82
2017-03-12T10:26:57.539Z,7.77
2017-03-12T10:27:57.532Z,7.79
2017-03-12T10:28:57.521Z,7.85
2017-03-12T10:29:57.507Z,7.8
2017-03-12T10:30:57.505Z,7.74
2017-03-12T10:31:57.495Z,7.69
2017-03-12T10:32:57.497Z,7.74
2017-03-12T10:33:57.474Z,7.77
2017-03-12T10:34:57.466Z,7.77
2017-03-12T10:35:57.467Z,7.79
2017-03-12T10:36:57.710Z,7.92
2017-03-12T10:37:57.057Z,7.89
2017-03-12T10:38:57.429Z,7.89
2017-03-12T10:39:57.418Z,7.93
2017-03-12T10:40:57.421Z,7.98
2017-03-12T10:41:57.396Z,8.02
2017-03-12T10:42:57.402Z,8.05
2017-03-12T10:43:56.998Z,8.02
2017-03-12T10:44:57.384Z,8.07
2017-03-12T10:45:57.374Z,8.01
2017-03-12T10:46:57.358Z,8.11
2017-03-12T10:47:57.381Z,8.16
2017-03-12T10:48:57.351Z,8.19
2017-03-12T10:49:57.331Z,8.19
2017-03-12T10:50:57.331Z,8.29
2017-03-12T10:51:57.326Z,8.34
2017-03-12T10:52:57.350Z,8.41
2017-03-12T10:53:56.917Z,8.37
2017-03-12T10:54:57.300Z,8.33
2017-03-12T10:55:57.287Z,8.33
2017-03-12T10:56:57.282Z,8.3
2017-03-12T10:57:57.264Z,8.23
2017-03-12T10:58:57.255Z,8.33
2017-03-12T10:59:57.263Z,8.29
2017-03-12T11:00:57.241Z,8.34
2017-03-12T11:01:57.235Z,8.37
2017-03-12T11:02:57.215Z,8.29
2017-03-12T11:03:57.218Z,8.4
2017-03-12T11:04:57.203Z,8.33
2017-03-12T11:05:57.190Z,8.34
2017-03-12T11:06:57.188Z,8.47
2017-03-12T11:07:57.173Z,8.45
2017-03-12T11:08:57.174Z,8.58
2017-03-12T11:09:57.156Z,8.63
2017-03-12T11:10:57.162Z,8.66
2017-03-12T11:11:57.155Z,8.7
2017-03-12T11:12:57.157Z,8.81
2017-03-12T11:13:57.125Z,8.92
2017-03-12T11:14:57.117Z,9.04
2017-03-12T11:15:57.122Z,9.02
2017-03-12T11:16:57.110Z,9.02
2017-03-12T11:17:57.108Z,9.08
2017-03-12T11:18:57.101Z,8.91
2017-03-12T11:19:57.074Z,8.92
2017-03-12T11:20:57.070Z,8.98
2017-03-12T11:21:56.673Z,8.91
2017-03-12T11:22:57.074Z,8.96
2017-03-12T11:23:57.047Z,9.08
2017-03-12T11:24:57.036Z,9.18
2017-03-12T11:25:57.031Z,9.33
2017-03-12T11:26:57.019Z,9.32
2017-03-12T11:27:57.017Z,9.46
2017-03-12T11:28:57.006Z,9.46
2017-03-12T11:29:57.007Z,9.47
2017-03-12T11:30:56.983Z,9.51
2017-03-12T11:31:56.975Z,9.56
2017-03-12T11:32:56.968Z,9.66
2017-03-12T11:33:56.964Z,9.65
2017-03-12T11:34:56.955Z,9.58
2017-03-12T11:35:56.964Z,9.58
2017-03-12T11:36:56.951Z,9.64
2017-03-12T11:37:56.930Z,9.66
2017-03-12T11:38:56.956Z,9.66
2017-03-12T11:39:56.931Z,9.57
2017-03-12T11:40:56.905Z,9.56
2017-03-12T11:41:56.900Z,9.47
2017-03-12T11:42:56.893Z,9.39
2017-03-12T11:43:56.891Z,9.43
2017-03-12T11:44:56.874Z,9.4
2017-03-12T11:45:56.865Z,9.24
2017-03-12T11:46:56.855Z,9.29
2017-03-12T11:47:56.857Z,9.24
2017-03-12T11:48:56.868Z,9.38
2017-03-12T11:49:56.840Z,9.46
2017-03-12T11:50:56.831Z,9.6
2017-03-12T11:51:56.820Z,9.79
2017-03-12T11:52:56.816Z,10.04
2017-03-12T11:53:56.806Z,10.09
2017-03-12T11:54:56.800Z,10.22
2017-03-12T11:55:56.403Z,10.32
2017-03-12T11:56:56.793Z,10.34
2017-03-12T11:57:56.774Z,10.47
2017-03-12T11:58:56.777Z,10.45
2017-03-12T11:59:56.759Z,10.63
2017-03-12T12:00:56.766Z,10.59
2017-03-12T12:01:56.763Z,10.55
2017-03-12T12:02:56.745Z,10.47
2017-03-12T12:03:56.728Z,10.4
2017-03-12T12:04:56.728Z,10.32
2017-03-12T12:05:56.712Z,10.22
2017-03-12T12:06:56.335Z,10.2
2017-03-12T12:07:56.705Z,10.2
2017-03-12T12:08:56.695Z,10.08
2017-03-12T12:09:56.687Z,10.07
2017-03-12T12:10:56.705Z,10.11
2017-03-12T12:11:56.672Z,10.11
2017-03-12T12:12:56.664Z,10.15
2017-03-12T12:13:56.658Z,10.27
2017-03-12T12:14:56.648Z,10.2
2017-03-12T12:15:56.645Z,10.36
2017-03-12T12:16:56.648Z,10.29
2017-03-12T12:17:56.642Z,10.32
2017-03-12T12:18:56.623Z,10.17
2017-03-12T12:19:56.625Z,10.04
2017-03-12T12:20:56.611Z,9.96
2017-03-12T12:21:56.622Z,9.97
2017-03-12T12:22:56.592Z,9.83
2017-03-12T12:23:56.586Z,9.76
2017-03-12T12:24:56.189Z,9.72
2017-03-12T12:25:56.574Z,9.66
2017-03-12T12:26:56.556Z,9.58
2017-03-12T12:27:56.551Z,9.66
2017-03-12T12:28:56.577Z,9.78
2017-03-12T12:29:56.538Z,9.69
2017-03-12T12:30:56.567Z,9.58
2017-03-12T12:31:56.521Z,9.42
2017-03-12T12:32:56.522Z,9.39
2017-03-12T12:33:56.514Z,9.36
2017-03-12T12:34:56.783Z,9.36
2017-03-12T12:35:56.492Z,9.32
2017-03-12T12:36:56.495Z,9.32
2017-03-12T12:37:56.475Z,9.23
2017-03-12T12:38:56.484Z,9.28
2017-03-12T12:39:56.468Z,9.26
2017-03-12T12:40:56.472Z,9.26
2017-03-12T12:41:56.450Z,9.23
2017-03-12T12:42:56.449Z,9.28
2017-03-12T12:43:56.444Z,9.26
2017-03-12T12:44:56.427Z,9.18
2017-03-12T12:45:56.438Z,9.15
2017-03-12T12:46:56.412Z,9.26
2017-03-12T12:47:56.408Z,9.35
2017-03-12T12:48:56.388Z,9.36
2017-03-12T12:49:56.379Z,9.48
2017-03-12T12:50:56.374Z,9.5
2017-03-12T12:51:56.366Z,9.48
2017-03-12T12:52:56.354Z,9.43
2017-03-12T12:53:56.352Z,9.35
2017-03-12T12:54:56.337Z,9.38
2017-03-12T12:55:56.331Z,9.35
2017-03-12T12:56:56.330Z,9.18
2017-03-12T12:57:56.313Z,9.33
2017-03-12T12:58:56.325Z,9.35
2017-03-12T12:59:56.296Z,9.36
2017-03-12T13:00:56.288Z,9.43
2017-03-12T13:01:56.279Z,9.48
2017-03-12T13:02:56.272Z,9.5
2017-03-12T13:03:55.881Z,9.48
2017-03-12T13:04:56.255Z,9.51
2017-03-12T13:05:56.250Z,9.47
2017-03-12T13:06:56.240Z,9.4
2017-03-12T13:07:56.230Z,9.4
2017-03-12T13:08:56.217Z,9.39
2017-03-12T13:09:56.230Z,9.48
2017-03-12T13:10:55.817Z,9.46
2017-03-12T13:11:56.216Z,9.5
2017-03-12T13:12:56.190Z,9.46
2017-03-12T13:13:56.180Z,9.47
2017-03-12T13:14:56.175Z,9.51
2017-03-12T13:15:56.177Z,9.48
2017-03-12T13:16:56.158Z,9.51
2017-03-12T13:17:56.146Z,9.33
2017-03-12T13:18:56.137Z,9.35
2017-03-12T13:19:56.135Z,9.29